Time;durP1;ratioP1;P1;durP2;ratioP2;P2;SDS_P1;SDS_P2;PMS_P1;PMS_P2;Temp;Humidity;BMP_temperature;BMP_pressure;BME280_temperature;BME280_humidity;BME280_pressure;Samples;Min_cycle;Max_cycle;Signal;HPM_P1;HPM_P2
2023/09/25 00:00:21;;;;;;;7.30;4.88;;;;;;;-144.73;100.00;54514.44;5049928;28;20083;-73
2023/09/25 00:02:47;;;;;;;6.07;4.55;;;;;;;-144.73;100.00;54518.53;5051246;28;20020;-73
2023/09/25 00:05:14;;;;;;;6.53;4.60;;;;;;;-144.73;100.00;54504.16;5055835;28;20063;-73
2023/09/25 00:07:40;;;;;;;5.75;4.20;;;;;;;-144.73;100.00;54543.16;5053532;28;20052;-73
2023/09/25 00:10:07;;;;;;;5.57;3.88;;;;;;;-144.73;100.00;54506.22;5032650;28;20060;-73
2023/09/25 00:12:33;;;;;;;6.03;4.25;;;;;;;-144.73;100.00;54512.38;5051881;28;20029;-73
2023/09/25 00:14:58;;;;;;;8.80;5.75;;;;;;;-144.73;100.00;54547.28;5037653;28;20037;-73
2023/09/25 00:17:23;;;;;;;12.95;3.67;;;;;;;-144.73;100.00;54522.63;5052760;28;20017;-73
2023/09/25 00:19:49;;;;;;;7.03;4.03;;;;;;;-144.73;100.00;54489.81;5048750;28;20036;-73
2023/09/25 00:22:14;;;;;;;11.23;4.80;;;;;;;-144.73;100.00;54518.53;5032379;28;20497;-73
2023/09/25 00:24:40;;;;;;;8.43;4.00;;;;;;;-144.73;100.00;54604.75;5032179;28;20052;-73
2023/09/25 00:27:06;;;;;;;6.90;3.47;;;;;;;-144.73;100.00;54539.06;5054539;28;20040;-73
2023/09/25 00:29:32;;;;;;;6.72;3.97;;;;;;;-144.73;100.00;54526.75;5051712;28;20044;-73
2023/09/25 00:31:57;;;;;;;8.73;3.88;;;;;;;-144.73;100.00;54543.16;5030734;28;20535;-73
2023/09/25 00:34:22;;;;;;;10.88;4.00;;;;;;;-144.73;100.00;54512.38;5036170;28;20025;-73
2023/09/25 00:36:48;;;;;;;7.95;4.00;;;;;;;-144.73;100.00;54514.44;5034442;28;20029;-73
2023/09/25 00:39:13;;;;;;;5.05;3.28;;;;;;;-144.73;100.00;54526.75;5028249;28;20521;-73
2023/09/25 00:41:39;;;;;;;8.45;4.47;;;;;;;-144.73;100.00;54522.63;5052965;28;20028;-73
2023/09/25 00:44:04;;;;;;;5.68;4.03;;;;;;;-144.73;100.00;54514.44;5054938;28;20033;-73
2023/09/25 00:46:31;;;;;;;10.27;4.35;;;;;;;-144.73;100.00;54543.16;5048284;28;20391;-73
2023/09/25 00:48:56;;;;;;;7.30;3.83;;;;;;;-144.73;100.00;54539.06;5031872;28;20032;-73
2023/09/25 00:51:22;;;;;;;9.23;4.10;;;;;;;-144.73;100.00;54524.69;5041183;28;20029;-73
2023/09/25 00:53:48;;;;;;;7.80;4.10;;;;;;;-144.73;100.00;54547.28;5056530;28;20492;-73
2023/09/25 00:56:14;;;;;;;8.15;4.25;;;;;;;-144.73;100.00;54514.44;5051842;28;20064;-73
2023/09/25 00:58:40;;;;;;;8.02;4.38;;;;;;;-144.73;100.00;54506.22;5038587;28;20288;-73
2023/09/25 01:01:07;;;;;;;6.50;3.72;;;;;;;-144.73;100.00;54512.38;5063174;28;20013;-73
2023/09/25 01:03:33;;;;;;;8.10;4.30;;;;;;;-144.73;100.00;54510.31;5059641;28;20043;-73
2023/09/25 01:05:59;;;;;;;8.18;3.70;;;;;;;-144.73;100.00;54530.84;5041697;28;20043;-73
2023/09/25 01:08:24;;;;;;;7.45;4.93;;;;;;;-144.73;100.00;54539.06;5035533;28;20025;-72
2023/09/25 01:10:51;;;;;;;10.60;4.32;;;;;;;-144.73;100.00;54543.16;5039577;28;20045;-72
2023/09/25 01:13:16;;;;;;;9.73;4.28;;;;;;;-144.73;100.00;54528.81;5058189;28;20111;-72
2023/09/25 01:15:41;;;;;;;9.07;4.53;;;;;;;-144.73;100.00;54539.06;5039566;28;20067;-72
2023/09/25 01:18:10;;;;;;;7.35;4.10;;;;;;;-144.73;100.00;54510.31;5040538;28;20460;-72
2023/09/25 01:20:36;;;;;;;7.35;4.40;;;;;;;-144.73;100.00;54530.84;5057433;28;20036;-71
2023/09/25 01:23:02;;;;;;;9.10;4.43;;;;;;;-144.73;100.00;54530.84;5058313;28;20025;-72
2023/09/25 01:25:27;;;;;;;9.80;4.93;;;;;;;-144.73;100.00;54518.53;5039648;28;20053;-72
2023/09/25 01:27:53;;;;;;;8.52;4.80;;;;;;;-144.73;100.00;54539.06;5058214;28;20115;-72
2023/09/25 01:30:18;;;;;;;10.13;4.57;;;;;;;-144.73;100.00;54528.81;5057399;28;20083;-72
2023/09/25 01:32:45;;;;;;;7.72;4.72;;;;;;;-144.73;100.00;54555.47;5040760;28;20052;-72
2023/09/25 01:35:15;;;;;;;8.35;4.32;;;;;;;-144.73;100.00;54559.59;5057259;28;20048;-71
2023/09/25 01:37:41;;;;;;;8.98;4.85;;;;;;;-144.73;100.00;54508.28;5039974;28;20028;-72
2023/09/25 01:40:13;;;;;;;10.80;4.85;;;;;;;-144.73;100.00;54498.00;5039479;28;20499;-72
2023/09/25 01:42:39;;;;;;;5.68;4.22;;;;;;;-144.73;100.00;54539.06;5056512;28;20036;-72
2023/09/25 01:45:06;;;;;;;9.00;4.72;;;;;;;-144.73;100.00;54522.63;5057376;28;20028;-72
2023/09/25 01:47:31;;;;;;;17.35;5.47;;;;;;;-144.73;100.00;54518.53;5039920;28;20082;-72
2023/09/25 01:49:56;;;;;;;9.57;5.00;;;;;;;-144.73;100.00;54545.22;5038929;28;20033;-72
2023/09/25 01:52:22;;;;;;;12.07;4.93;;;;;;;-144.73;100.00;54559.59;5039637;28;20448;-72
2023/09/25 01:54:50;;;;;;;9.73;5.20;;;;;;;-144.73;100.00;54547.28;5039571;28;20032;-72
2023/09/25 01:57:15;;;;;;;11.35;5.25;;;;;;;-144.73;100.00;54559.59;5057953;28;20108;-72
2023/09/25 01:59:41;;;;;;;7.20;4.25;;;;;;;-144.73;100.00;54506.22;5057924;28;20451;-72
2023/09/25 02:02:06;;;;;;;6.25;4.90;;;;;;;-144.73;100.00;54547.28;5041704;28;20028;-72
2023/09/25 02:04:31;;;;;;;20.98;6.05;;;;;;;-144.73;100.00;54553.44;5059347;28;20032;-72
2023/09/25 02:06:57;;;;;;;7.35;5.00;;;;;;;-144.73;100.00;54510.31;5076310;28;20067;-72
2023/09/25 02:09:22;;;;;;;11.10;4.72;;;;;;;-144.73;100.00;54502.13;5055457;28;20142;-72
2023/09/25 02:11:47;;;;;;;7.03;4.70;;;;;;;-144.73;100.00;54514.44;5056321;28;20020;-72
2023/09/25 02:14:13;;;;;;;9.32;4.80;;;;;;;-144.73;100.00;54520.59;5073514;28;20111;-72
2023/09/25 02:16:38;;;;;;;11.07;5.13;;;;;;;-144.73;100.00;54518.53;5056345;28;20028;-72
2023/09/25 02:19:04;;;;;;;7.32;4.50;;;;;;;-144.73;100.00;54489.81;5073537;28;20033;-72
2023/09/25 02:21:29;;;;;;;12.95;4.90;;;;;;;-144.73;100.00;54547.28;5056562;28;20051;-72
2023/09/25 02:23:54;;;;;;;9.35;4.78;;;;;;;-144.73;100.00;54493.91;5073458;28;20028;-72
2023/09/25 02:26:20;;;;;;;8.50;4.15;;;;;;;-144.73;100.00;54530.84;5056139;28;20023;-71
2023/09/25 02:28:45;;;;;;;7.05;4.50;;;;;;;-144.73;100.00;54559.59;5073473;28;20038;-72
2023/09/25 02:31:11;;;;;;;11.55;4.50;;;;;;;-144.73;100.00;54539.06;5055992;28;20055;-72
2023/09/25 02:33:36;;;;;;;6.43;5.00;;;;;;;-144.73;100.00;54528.81;5074007;28;20051;-72
2023/09/25 02:36:05;;;;;;;13.32;4.72;;;;;;;-144.73;100.00;54518.53;5055735;28;20047;-72
2023/09/25 02:38:30;;;;;;;6.28;4.93;;;;;;;-144.73;100.00;54518.53;5073768;28;20039;-72
2023/09/25 02:40:56;;;;;;;10.70;5.47;;;;;;;-144.73;100.00;54543.16;5055266;28;20040;-72
2023/09/25 02:43:21;;;;;;;12.38;4.88;;;;;;;-144.73;100.00;54539.06;5073471;28;20020;-72
2023/09/25 02:45:47;;;;;;;12.80;4.82;;;;;;;-144.73;100.00;54563.69;5054977;28;20029;-72
2023/09/25 02:48:12;;;;;;;8.88;4.13;;;;;;;-144.73;100.00;54530.84;5069656;28;20051;-72
2023/09/25 02:50:38;;;;;;;12.70;5.10;;;;;;;-144.73;100.00;54526.75;5035047;28;20048;-72
2023/09/25 02:53:04;;;;;;;11.18;4.65;;;;;;;-144.73;100.00;54567.81;5053630;28;20054;-72
2023/09/25 02:55:29;;;;;;;16.33;5.97;;;;;;;-144.73;100.00;54530.84;5035452;28;20071;-72
2023/09/25 02:57:54;;;;;;;8.20;4.75;;;;;;;-144.73;100.00;54543.16;5053310;28;20028;-72
2023/09/25 03:00:21;;;;;;;8.70;4.68;;;;;;;-144.73;100.00;54510.31;5035241;28;20025;-72
2023/09/25 03:02:46;;;;;;;11.98;4.63;;;;;;;-144.73;100.00;54584.22;5035380;28;20046;-72
2023/09/25 03:05:12;;;;;;;13.23;5.78;;;;;;;-144.73;100.00;54502.13;5034714;28;20029;-72
2023/09/25 03:07:38;;;;;;;7.60;4.88;;;;;;;-144.73;100.00;54539.06;5035419;28;20043;-72
2023/09/25 03:10:04;;;;;;;6.82;4.65;;;;;;;-144.73;100.00;54514.44;5052693;28;20037;-72
2023/09/25 03:12:29;;;;;;;11.88;4.72;;;;;;;-144.73;100.00;54555.47;5035397;28;20051;-72
2023/09/25 03:14:55;;;;;;;7.60;5.03;;;;;;;-144.73;100.00;54530.84;5034774;28;20056;-72
2023/09/25 03:17:20;;;;;;;7.38;4.75;;;;;;;-144.73;100.00;54559.59;5034995;28;20027;-72
2023/09/25 03:19:45;;;;;;;6.63;4.45;;;;;;;-144.73;100.00;54539.06;5034218;28;20076;-71
2023/09/25 03:22:11;;;;;;;7.90;4.80;;;;;;;-144.73;100.00;54510.31;5053076;28;20025;-72
2023/09/25 03:24:36;;;;;;;15.80;5.88;;;;;;;-144.73;100.00;54502.13;5052568;28;20029;-72
2023/09/25 03:27:01;;;;;;;7.53;4.45;;;;;;;-144.73;100.00;54604.75;5051519;28;20029;-72
2023/09/25 03:29:27;;;;;;;10.88;4.57;;;;;;;-144.73;100.00;54502.13;5034461;28;20033;-72
2023/09/25 03:31:52;;;;;;;9.00;5.13;;;;;;;-144.73;100.00;54545.22;5034442;28;20159;-72
2023/09/25 03:34:20;;;;;;;6.95;4.70;;;;;;;-144.73;100.00;54526.75;5034283;28;20029;-72
2023/09/25 03:36:45;;;;;;;10.02;4.15;;;;;;;-144.73;100.00;54528.81;5034491;28;20040;-72
2023/09/25 03:39:10;;;;;;;13.55;5.32;;;;;;;-144.73;100.00;54543.16;5034745;28;20029;-72
2023/09/25 03:41:36;;;;;;;12.35;5.30;;;;;;;-144.73;100.00;54506.22;5035039;28;20108;-72
2023/09/25 03:44:01;;;;;;;12.38;5.22;;;;;;;-144.73;100.00;54508.28;5034474;28;20040;-72
2023/09/25 03:46:27;;;;;;;8.07;4.20;;;;;;;-144.73;100.00;54498.00;5034742;28;20025;-72
2023/09/25 03:48:52;;;;;;;6.20;4.47;;;;;;;-144.73;100.00;54551.38;5033889;28;20053;-72
2023/09/25 03:51:17;;;;;;;8.35;4.70;;;;;;;-144.73;100.00;54539.06;5051717;28;20029;-72
2023/09/25 03:53:43;;;;;;;11.07;4.85;;;;;;;-144.73;100.00;54506.22;5051021;28;20024;-72
2023/09/25 03:56:08;;;;;;;6.93;4.25;;;;;;;-144.73;100.00;54555.47;5051818;28;20017;-72
2023/09/25 03:58:34;;;;;;;8.50;4.47;;;;;;;-144.73;100.00;54522.63;5034171;28;20384;-72
2023/09/25 04:00:59;;;;;;;7.10;5.07;;;;;;;-144.73;100.00;54588.31;5051870;28;20107;-72
2023/09/25 04:03:25;;;;;;;8.98;4.80;;;;;;;-144.73;100.00;54500.06;5052563;28;20031;-72
2023/09/25 04:05:50;;;;;;;8.23;4.70;;;;;;;-144.73;100.00;54510.31;5051328;28;20033;-71
2023/09/25 04:08:15;;;;;;;13.38;5.15;;;;;;;-144.73;100.00;54526.75;5034261;28;20526;-72
2023/09/25 04:10:41;;;;;;;9.07;5.05;;;;;;;-144.73;100.00;54547.28;5033425;28;20033;-72
2023/09/25 04:13:08;;;;;;;7.05;4.97;;;;;;;-144.73;100.00;54545.22;5051729;28;20025;-72
2023/09/25 04:15:33;;;;;;;6.43;4.57;;;;;;;-144.73;100.00;54582.16;5034085;28;20032;-72
2023/09/25 04:17:59;;;;;;;15.02;5.93;;;;;;;-144.73;100.00;54530.84;5051763;28;20028;-71
2023/09/25 04:20:25;;;;;;;9.65;5.75;;;;;;;-144.73;100.00;54518.53;5033505;28;20028;-73
2023/09/25 04:22:57;;;;;;;7.07;5.20;;;;;;;-144.73;100.00;54514.44;5034205;28;20021;-72
2023/09/25 04:25:22;;;;;;;7.30;5.78;;;;;;;-144.73;100.00;54559.59;5033724;28;20041;-72
2023/09/25 04:27:50;;;;;;;9.48;5.05;;;;;;;-144.73;100.00;54555.47;5050694;28;20032;-72
2023/09/25 04:30:17;;;;;;;9.63;5.20;;;;;;;-144.73;100.00;54526.75;5032699;28;20041;-72
2023/09/25 04:32:44;;;;;;;10.75;5.30;;;;;;;-144.73;100.00;54498.00;5033717;28;20033;-72
2023/09/25 04:35:13;;;;;;;10.02;5.53;;;;;;;-144.73;100.00;54491.84;5033310;28;20043;-72
2023/09/25 04:37:39;;;;;;;8.52;5.72;;;;;;;-144.73;100.00;54539.06;5034046;28;20059;-72
2023/09/25 04:40:22;;;;;;;12.77;5.65;;;;;;;-144.73;100.00;54522.63;5051455;28;20029;-72
2023/09/25 04:42:52;;;;;;;12.05;6.40;;;;;;;-144.73;100.00;54559.59;5051732;28;20059;-72
2023/09/25 04:45:18;;;;;;;9.18;6.20;;;;;;;-144.73;100.00;54518.53;5033569;28;20132;-72
2023/09/25 04:47:48;;;;;;;11.93;6.53;;;;;;;-144.73;100.00;54559.59;5033460;28;20028;-72
2023/09/25 04:50:15;;;;;;;10.15;5.53;;;;;;;-144.73;100.00;54522.63;5051307;28;20037;-72
2023/09/25 04:52:42;;;;;;;11.15;6.95;;;;;;;-144.73;100.00;54524.69;5034011;28;20033;-72
2023/09/25 04:55:12;;;;;;;9.50;6.05;;;;;;;-144.73;100.00;54530.84;5033036;28;20041;-72
2023/09/25 04:57:43;;;;;;;7.70;6.35;;;;;;;-144.73;100.00;54539.06;5034018;28;20060;-72
2023/09/25 05:02:46;;;;;;;10.07;5.72;;;;;;;-144.73;100.00;54567.81;5051573;28;20052;-72
2023/09/25 05:05:13;;;;;;;9.10;5.97;;;;;;;-144.73;100.00;54518.53;5033165;28;20037;-72
2023/09/25 05:07:42;;;;;;;12.50;6.30;;;;;;;-144.73;100.00;54514.44;5051171;28;20487;-72
2023/09/25 05:10:13;;;;;;;10.40;7.20;;;;;;;-144.73;100.00;54506.22;5032725;28;20094;-72
2023/09/25 05:12:39;;;;;;;10.63;6.68;;;;;;;-144.73;100.00;54551.38;5033686;28;20111;-72
2023/09/25 05:15:07;;;;;;;9.40;6.10;;;;;;;-144.73;100.00;54530.84;5051058;28;20504;-72
2023/09/25 05:17:36;;;;;;;9.75;5.50;;;;;;;-144.73;100.00;54559.59;5033536;28;20025;-72
2023/09/25 05:20:11;;;;;;;13.30;5.95;;;;;;;-144.73;100.00;54518.53;5033269;28;20029;-72
2023/09/25 05:22:41;;;;;;;8.75;6.15;;;;;;;-144.73;100.00;54563.69;5050867;28;20040;-72
2023/09/25 05:25:08;;;;;;;7.10;5.60;;;;;;;-144.73;100.00;54567.81;5050319;28;20041;-72
2023/09/25 05:27:35;;;;;;;10.20;5.72;;;;;;;-144.73;100.00;54530.84;5033586;28;20419;-72
2023/09/25 05:30:01;;;;;;;9.45;5.57;;;;;;;-144.73;100.00;54551.38;5032565;28;20088;-72
2023/09/25 05:32:27;;;;;;;8.20;5.57;;;;;;;-144.73;100.00;54510.31;5033432;28;20032;-72
2023/09/25 05:34:52;;;;;;;7.97;5.43;;;;;;;-144.73;100.00;54539.06;5032875;28;20040;-72
2023/09/25 05:37:17;;;;;;;7.20;5.35;;;;;;;-144.73;100.00;54543.16;5032827;28;20039;-72
2023/09/25 05:39:43;;;;;;;9.57;5.32;;;;;;;-144.73;100.00;54576.00;5032723;28;20059;-72
2023/09/25 05:42:08;;;;;;;11.10;6.13;;;;;;;-144.73;100.00;54510.31;5052026;28;20060;-72
2023/09/25 05:44:34;;;;;;;17.45;6.38;;;;;;;-144.73;100.00;54518.53;5053145;28;20052;-72
2023/09/25 05:47:00;;;;;;;7.05;4.60;;;;;;;-144.73;100.00;54539.06;5055002;28;20025;-72
2023/09/25 05:49:25;;;;;;;15.52;4.97;;;;;;;-144.73;100.00;54555.47;5035946;28;20063;-72
2023/09/25 05:51:53;;;;;;;7.93;5.10;;;;;;;-144.73;100.00;54522.63;5036662;28;20051;-72
2023/09/25 05:54:21;;;;;;;6.43;4.63;;;;;;;-144.73;100.00;54547.28;5036543;28;20091;-72
2023/09/25 05:56:47;;;;;;;9.13;4.60;;;;;;;-144.73;100.00;54567.81;5054575;28;20037;-72
2023/09/25 05:59:14;;;;;;;12.32;5.05;;;;;;;-144.73;100.00;54528.81;5036724;28;20094;-72
2023/09/25 06:01:39;;;;;;;12.18;5.35;;;;;;;-144.73;100.00;54539.06;5036479;28;20024;-72
2023/09/25 06:04:05;;;;;;;10.15;4.90;;;;;;;-144.73;100.00;54555.47;5054038;28;20377;-72
2023/09/25 06:06:30;;;;;;;9.85;4.50;;;;;;;-144.73;100.00;54514.44;5036393;28;20029;-72
2023/09/25 06:08:56;;;;;;;9.30;5.03;;;;;;;-144.73;100.00;54539.06;5053872;28;20467;-72
2023/09/25 06:11:22;;;;;;;12.30;4.95;;;;;;;-144.73;100.00;54506.22;5036248;28;20033;-71
2023/09/25 06:13:48;;;;;;;11.80;5.28;;;;;;;-144.73;100.00;54524.69;5035705;28;20036;-72
2023/09/25 06:16:13;;;;;;;6.75;4.40;;;;;;;-144.73;100.00;54522.63;5037035;28;20400;-72
2023/09/25 06:18:40;;;;;;;9.15;4.50;;;;;;;-144.73;100.00;54551.38;5053046;28;20036;-72
2023/09/25 06:21:08;;;;;;;9.95;4.53;;;;;;;-144.73;100.00;54510.31;5052518;28;20071;-72
2023/09/25 06:23:33;;;;;;;6.45;4.38;;;;;;;-144.73;100.00;54541.13;5053106;28;20025;-72
2023/09/25 06:25:59;;;;;;;6.72;4.45;;;;;;;-144.73;100.00;54543.16;5051939;28;20086;-72
2023/09/25 06:28:25;;;;;;;7.90;4.38;;;;;;;-144.73;100.00;54510.31;5053654;28;20021;-71
2023/09/25 06:30:50;;;;;;;10.68;3.97;;;;;;;-144.73;100.00;54555.47;5035744;28;20399;-71
2023/09/25 06:33:16;;;;;;;6.75;4.18;;;;;;;-144.73;100.00;54543.16;5052596;28;20037;-71
2023/09/25 06:35:42;;;;;;;9.65;4.25;;;;;;;-144.73;100.00;54539.06;5053102;28;20029;-72
2023/09/25 06:38:08;;;;;;;8.15;4.00;;;;;;;-144.73;100.00;54498.00;5053118;28;20017;-71
2023/09/25 06:40:34;;;;;;;8.35;4.05;;;;;;;-144.73;100.00;54551.38;5053336;28;20133;-71
2023/09/25 06:42:59;;;;;;;8.05;4.65;;;;;;;-144.73;100.00;54580.13;5054078;28;20025;-71
2023/09/25 06:45:24;;;;;;;8.38;3.80;;;;;;;-144.73;100.00;54555.47;5053030;28;20118;-72
2023/09/25 06:47:50;;;;;;;8.80;4.55;;;;;;;-144.73;100.00;54518.53;5053328;28;20025;-72
2023/09/25 06:50:16;;;;;;;9.95;5.10;;;;;;;-144.73;100.00;54518.53;5052819;28;20044;-71
2023/09/25 06:52:42;;;;;;;10.07;4.60;;;;;;;-144.73;100.00;54514.44;5053593;28;20033;-71
2023/09/25 06:55:08;;;;;;;8.85;4.15;;;;;;;-144.73;100.00;54559.59;5034676;28;20040;-72
2023/09/25 06:57:33;;;;;;;7.38;4.07;;;;;;;-144.73;100.00;54543.16;5036097;28;20029;-71
2023/09/25 06:59:59;;;;;;;5.25;3.92;;;;;;;-144.73;100.00;54543.16;5034986;28;20029;-71
2023/09/25 07:02:25;;;;;;;12.32;4.22;;;;;;;-144.73;100.00;54530.84;5035906;28;20028;-71
2023/09/25 07:04:50;;;;;;;7.07;3.53;;;;;;;-144.73;100.00;54551.38;5051740;28;20033;-71
2023/09/25 07:07:16;;;;;;;7.75;3.70;;;;;;;-144.73;100.00;54498.00;5035534;28;20047;-71
2023/09/25 07:09:42;;;;;;;8.70;3.90;;;;;;;-144.73;100.00;54516.47;5052745;28;20033;-71
2023/09/25 07:12:08;;;;;;;12.52;3.85;;;;;;;-144.73;100.00;54539.06;5050632;28;20099;-72
2023/09/25 07:14:34;;;;;;;7.82;3.53;;;;;;;-144.73;100.00;54551.38;5050989;28;20044;-72
2023/09/25 07:16:59;;;;;;;6.57;3.72;;;;;;;-144.73;100.00;54576.00;5052581;28;20031;-72
2023/09/25 07:19:24;;;;;;;8.95;3.75;;;;;;;-144.73;100.00;54522.63;5068260;28;20076;-72
2023/09/25 07:21:50;;;;;;;5.30;3.42;;;;;;;-144.73;100.00;54514.44;5068945;28;20072;-72
2023/09/25 07:24:15;;;;;;;6.32;3.38;;;;;;;-144.73;100.00;54506.22;5068026;28;20029;-72
2023/09/25 07:26:41;;;;;;;6.13;3.33;;;;;;;-144.73;100.00;54493.91;5035298;28;20051;-72
2023/09/25 07:29:06;;;;;;;8.68;3.20;;;;;;;-144.73;100.00;54539.06;5052516;28;20028;-72
2023/09/25 07:31:32;;;;;;;5.15;3.00;;;;;;;-144.73;100.00;54543.16;5035244;28;20426;-72
2023/09/25 07:33:58;;;;;;;7.35;2.83;;;;;;;-144.73;100.00;54528.81;5033466;28;20060;-69
2023/09/25 07:36:24;;;;;;;8.50;3.35;;;;;;;-144.73;100.00;54543.16;5041250;28;20407;-68
2023/09/25 07:38:50;;;;;;;11.18;3.80;;;;;;;-144.73;100.00;54516.47;5049049;28;20112;-69
2023/09/25 07:41:16;;;;;;;6.50;3.17;;;;;;;-144.73;100.00;54547.28;5036285;28;20020;-68
2023/09/25 07:43:41;;;;;;;10.35;4.10;;;;;;;-144.73;100.00;54518.53;5041992;28;20027;-68
2023/09/25 07:46:08;;;;;;;6.88;3.50;;;;;;;-144.73;100.00;54489.81;5037326;28;20020;-69
2023/09/25 07:48:37;;;;;;;7.43;3.70;;;;;;;-144.73;100.00;54506.22;5040974;28;20032;-68
2023/09/25 07:51:07;;;;;;;8.35;3.35;;;;;;;-144.73;100.00;54493.91;5035450;28;20044;-69
2023/09/25 07:53:39;;;;;;;6.95;2.65;;;;;;;-144.73;100.00;54514.44;5030358;28;20081;-69
2023/09/25 07:56:05;;;;;;;7.65;3.03;;;;;;;-144.73;100.00;54510.31;5029100;28;20043;-69
2023/09/25 07:58:32;;;;;;;8.68;3.03;;;;;;;-144.73;100.00;54452.84;5030226;28;20020;-69
2023/09/25 08:01:04;;;;;;;8.02;3.03;;;;;;;-144.73;100.00;54528.81;5031984;28;20025;-69
2023/09/25 08:03:29;;;;;;;8.07;2.47;;;;;;;-144.73;100.00;54541.13;5059500;28;20016;-69
2023/09/25 08:05:56;;;;;;;7.47;2.72;;;;;;;-144.73;100.00;54526.75;5029879;28;20078;-69
2023/09/25 08:08:22;;;;;;;4.88;2.33;;;;;;;-144.73;100.00;54465.16;5030809;28;20036;-69
2023/09/25 08:10:47;;;;;;;14.48;4.18;;;;;;;-144.73;100.00;54539.06;5055385;28;20037;-69
2023/09/25 08:13:13;;;;;;;7.70;2.83;;;;;;;-144.73;100.00;54504.16;5038773;28;20020;-69
2023/09/25 08:15:39;;;;;;;5.47;3.20;;;;;;;-144.73;100.00;54604.75;5032560;28;20024;-69
2023/09/25 08:18:04;;;;;;;7.90;3.38;;;;;;;-144.73;100.00;54522.63;5038953;28;20032;-69
2023/09/25 08:20:30;;;;;;;8.52;3.03;;;;;;;-144.73;100.00;54508.28;5041193;28;20021;-69
2023/09/25 08:22:56;;;;;;;8.18;2.90;;;;;;;-144.73;100.00;54510.31;5052352;28;20017;-69
2023/09/25 08:25:22;;;;;;;6.38;2.38;;;;;;;-144.73;100.00;54502.13;5050254;28;20029;-69
2023/09/25 08:27:48;;;;;;;6.95;2.83;;;;;;;-144.73;100.00;54489.81;5026805;28;20021;-69
2023/09/25 08:30:18;;;;;;;9.27;2.83;;;;;;;-144.73;100.00;54514.44;5055166;28;20057;-69
2023/09/25 08:32:45;;;;;;;7.65;2.40;;;;;;;-144.73;100.00;54522.63;5032450;28;20098;-69
2023/09/25 08:35:11;;;;;;;5.22;2.45;;;;;;;-144.73;100.00;54500.06;5048349;28;20040;-69
2023/09/25 08:37:39;;;;;;;7.82;2.70;;;;;;;-144.73;100.00;54520.59;5036436;28;20036;-69
2023/09/25 08:40:05;;;;;;;7.90;2.67;;;;;;;-144.73;100.00;54495.97;5048521;28;20043;-69
2023/09/25 08:42:31;;;;;;;2.90;2.10;;;;;;;-144.73;100.00;54475.44;5032234;28;20166;-69
2023/09/25 08:44:59;;;;;;;5.05;2.20;;;;;;;-144.73;100.00;54506.22;5053430;28;20535;-70
2023/09/25 08:47:27;;;;;;;7.07;2.20;;;;;;;-144.73;100.00;54473.38;5047246;28;20115;-69
2023/09/25 08:49:52;;;;;;;5.20;1.83;;;;;;;-144.73;100.00;54459.00;5050504;28;20037;-69
2023/09/25 08:52:20;;;;;;;4.22;1.70;;;;;;;-144.73;100.00;54477.47;5049965;28;20386;-69
2023/09/25 08:54:48;;;;;;;6.22;2.13;;;;;;;-144.73;100.00;54498.00;5052086;28;20026;-69
2023/09/25 08:57:14;;;;;;;2.30;1.60;;;;;;;-144.73;100.00;54506.22;5046571;28;20025;-70
2023/09/25 08:59:40;;;;;;;9.68;1.70;;;;;;;-144.73;100.00;54506.22;5040459;28;20100;-69
2023/09/25 09:02:08;;;;;;;7.82;1.90;;;;;;;-144.73;100.00;54477.47;5030597;28;20013;-69
2023/09/25 09:04:35;;;;;;;4.90;2.00;;;;;;;-144.73;100.00;54502.13;5020158;28;20025;-69
2023/09/25 09:07:01;;;;;;;6.95;2.20;;;;;;;-144.73;100.00;54498.00;5034709;28;20017;-69
2023/09/25 09:09:26;;;;;;;2.97;1.58;;;;;;;-144.73;100.00;54456.97;5029645;28;20041;-69
2023/09/25 09:11:52;;;;;;;10.30;2.53;;;;;;;-144.73;100.00;54498.00;5050677;28;20101;-69
2023/09/25 09:14:35;;;;;;;7.25;1.92;;;;;;;-144.73;100.00;54483.66;5032002;28;20038;-69
2023/09/25 09:17:04;;;;;;;6.07;1.80;;;;;;;-144.73;100.00;54473.38;5056552;28;20028;-68
2023/09/25 09:19:48;;;;;;;5.00;2.85;;;;;;;-144.73;98.90;54485.69;5034717;28;20060;-69
2023/09/25 09:22:16;;;;;;;6.38;1.83;;;;;;;-144.73;96.31;54471.31;5047342;28;20029;-69
2023/09/25 09:24:43;;;;;;;3.50;1.70;;;;;;;-144.73;94.40;54481.59;5035066;28;20144;-69
2023/09/25 09:27:09;;;;;;;5.13;1.70;;;;;;;-144.73;96.89;54469.28;5050782;28;20048;-69
2023/09/25 09:29:40;;;;;;;3.58;1.35;;;;;;;-144.73;95.47;54477.47;5032447;28;20029;-69
2023/09/25 09:32:06;;;;;;;3.92;1.40;;;;;;;-144.73;96.62;54469.28;5033624;28;20021;-69
2023/09/25 09:34:32;;;;;;;8.65;1.75;;;;;;;-144.73;90.64;54452.84;5049811;28;20083;-69
2023/09/25 09:36:58;;;;;;;6.57;2.05;;;;;;;-144.73;89.06;54448.75;5033981;28;20101;-69
2023/09/25 09:39:34;;;;;;;12.10;1.65;;;;;;;-144.73;89.05;54463.13;5054334;28;20061;-69
2023/09/25 09:42:03;;;;;;;8.85;1.90;;;;;;;-144.73;89.89;54456.97;5040623;28;20074;-69
2023/09/25 09:44:29;;;;;;;3.40;1.70;;;;;;;-144.73;87.03;54473.38;5059191;28;20036;-69
2023/09/25 09:46:55;;;;;;;5.90;1.70;;;;;;;-144.73;88.69;54463.13;5052217;28;20111;-69
2023/09/25 09:49:21;;;;;;;6.95;2.25;;;;;;;-144.73;84.62;54454.91;5053680;28;20033;-69
2023/09/25 09:51:49;;;;;;;3.42;1.85;;;;;;;-144.73;85.09;54489.81;5041117;28;20092;-69
2023/09/25 09:54:17;;;;;;;4.80;2.15;;;;;;;-144.73;86.36;54477.47;5039148;28;20029;-69
2023/09/25 09:56:43;;;;;;;4.80;1.73;;;;;;;-144.73;84.61;54477.47;5032834;28;20017;-69
2023/09/25 09:59:09;;;;;;;3.05;1.60;;;;;;;-144.73;82.95;54485.69;5052121;28;20078;-69
2023/09/25 10:01:36;;;;;;;7.18;1.55;;;;;;;-144.73;80.92;54465.16;5031922;28;20024;-69
2023/09/25 10:04:07;;;;;;;6.00;1.50;;;;;;;-144.73;82.46;54479.53;5042259;28;20033;-69
2023/09/25 10:06:42;;;;;;;4.63;1.70;;;;;;;-144.73;82.43;54465.16;5038594;28;21224;-69
2023/09/25 10:09:11;;;;;;;6.40;1.75;;;;;;;-144.73;84.59;54446.69;5032934;28;20056;-69
2023/09/25 10:11:36;;;;;;;3.95;1.80;;;;;;;-144.73;81.37;54475.44;5058279;28;20028;-69
2023/09/25 10:14:06;;;;;;;4.03;2.42;;;;;;;-144.73;82.29;54452.84;5050246;28;20461;-70
2023/09/25 10:17:00;;;;;;;11.60;2.33;;;;;;;-144.73;80.29;54475.44;5034639;28;20033;-69
2023/09/25 10:19:44;;;;;;;3.30;1.60;;;;;;;-144.73;79.15;54485.69;5033378;28;20496;-70
2023/09/25 10:22:32;;;;;;;4.82;1.70;;;;;;;-144.73;75.61;54440.53;5045412;28;20081;-74
2023/09/25 10:25:12;;;;;;;2.55;1.52;;;;;;;-144.73;78.26;54454.91;5038409;28;20109;-73
2023/09/25 10:27:43;;;;;;;5.55;1.95;;;;;;;-144.73;76.58;54452.84;5042952;28;20077;-74
2023/09/25 10:30:14;;;;;;;;;;;;;;;-144.73;68.95;54450.81;5036008;28;20033;-74
2023/09/25 10:32:51;;;;;;;3.15;1.48;;;;;;;-144.73;69.48;54473.38;5032476;28;19909;-76
2023/09/25 10:35:42;;;;;;;11.70;1.88;;;;;;;-144.73;70.53;54461.06;5056236;28;20049;-73
2023/09/25 10:38:25;;;;;;;2.75;1.70;;;;;;;-144.73;70.40;54428.22;5057531;28;20036;-74
2023/09/25 10:40:54;;;;;;;2.20;1.50;;;;;;;-144.73;67.42;54495.97;5032391;28;20086;-74
2023/09/25 10:43:24;;;;;;;7.60;2.03;;;;;;;-144.73;65.15;54391.28;5033642;28;20584;-74
2023/09/25 10:45:52;;;;;;;2.42;1.52;;;;;;;-144.73;63.28;54411.81;5035933;28;20128;-74
2023/09/25 10:48:17;;;;;;;5.18;1.80;;;;;;;-144.73;63.77;54436.44;5035287;28;20032;-74
2023/09/25 10:50:44;;;;;;;7.47;1.80;;;;;;;-144.73;62.81;54444.66;5031185;28;20098;-73
2023/09/25 10:53:10;;;;;;;9.95;1.90;;;;;;;-144.73;61.70;54428.22;5049857;28;20025;-73
2023/09/25 10:55:36;;;;;;;6.63;2.58;;;;;;;-144.73;60.73;54424.13;5056973;28;20047;-74
2023/09/25 10:58:03;;;;;;;7.40;1.85;;;;;;;-144.73;60.65;54424.13;5056001;28;20021;-74
2023/09/25 11:00:28;;;;;;;4.60;1.90;;;;;;;-144.73;60.89;54411.81;5058349;28;20160;-74
2023/09/25 11:02:54;;;;;;;5.55;1.77;;;;;;;-144.73;60.33;54432.31;5060635;28;20116;-74
2023/09/25 11:05:21;;;;;;;8.65;2.03;;;;;;;-144.73;58.14;54385.13;5049896;28;20037;-73
2023/09/25 11:07:47;;;;;;;5.70;1.80;;;;;;;-144.73;58.65;54469.28;5051733;28;20023;-74
2023/09/25 11:10:13;;;;;;;6.07;2.22;;;;;;;-144.73;60.37;54436.44;5038037;28;20052;-74